createdAt,value
2016-12-24T00:00:12.466Z,17.8
2016-12-24T00:00:52.992Z,17.89
2016-12-24T00:01:33.516Z,17.87
2016-12-24T00:02:14.034Z,17.86
2016-12-24T00:02:54.571Z,17.89
2016-12-24T00:03:35.105Z,17.85
2016-12-24T00:04:15.623Z,17.87
2016-12-24T00:04:56.172Z,17.86
2016-12-24T00:05:36.698Z,17.95
2016-12-24T00:06:17.230Z,17.89
2016-12-24T00:06:57.775Z,17.89
2016-12-24T00:07:38.296Z,17.83
2016-12-24T00:08:18.820Z,17.76
2016-12-24T00:08:59.347Z,17.83
2016-12-24T00:09:39.872Z,17.79
2016-12-24T00:10:20.392Z,17.89
2016-12-24T00:11:00.930Z,17.89
2016-12-24T00:11:41.451Z,17.87
2016-12-24T00:12:21.982Z,17.85
2016-12-24T00:13:02.518Z,17.86
2016-12-24T00:13:43.048Z,17.89
2016-12-24T00:14:23.586Z,17.79
2016-12-24T00:15:04.100Z,17.79
2016-12-24T00:15:44.633Z,17.85
2016-12-24T00:16:25.160Z,17.83
2016-12-24T00:17:05.682Z,17.82
2016-12-24T00:17:46.200Z,17.86
2016-12-24T00:18:26.733Z,17.94
2016-12-24T00:19:07.263Z,17.9
2016-12-24T00:19:47.790Z,17.85
2016-12-24T00:20:28.311Z,17.92
2016-12-24T00:21:08.876Z,17.89
2016-12-24T00:21:49.407Z,17.98
2016-12-24T00:22:29.934Z,17.87
2016-12-24T00:23:10.470Z,17.83
2016-12-24T00:23:51.009Z,17.92
2016-12-24T00:24:31.540Z,17.89
2016-12-24T00:25:12.072Z,17.86
2016-12-24T00:25:52.714Z,17.83
2016-12-24T00:26:33.250Z,17.92
2016-12-24T00:27:13.790Z,17.87
2016-12-24T00:27:54.313Z,17.86
2016-12-24T00:28:34.840Z,17.85
2016-12-24T00:29:15.375Z,17.82
2016-12-24T00:29:55.908Z,17.87
2016-12-24T00:30:36.437Z,17.87
2016-12-24T00:31:16.967Z,17.89
2016-12-24T00:31:57.486Z,17.87
2016-12-24T00:32:38.020Z,17.86
2016-12-24T00:33:18.550Z,17.89
2016-12-24T00:33:59.065Z,17.87
2016-12-24T00:34:39.588Z,17.89
2016-12-24T00:35:20.119Z,17.86
2016-12-24T00:36:00.629Z,17.83
2016-12-24T00:36:41.165Z,17.87
2016-12-24T00:37:21.672Z,17.87
2016-12-24T00:38:02.216Z,17.89
2016-12-24T00:38:42.738Z,17.83
2016-12-24T00:39:23.249Z,17.92
2016-12-24T00:40:03.769Z,17.87
2016-12-24T00:40:44.316Z,17.86
2016-12-24T00:41:24.844Z,17.82
2016-12-24T00:42:05.360Z,17.79
2016-12-24T00:42:45.887Z,17.83
2016-12-24T00:43:26.415Z,17.83
2016-12-24T00:44:06.932Z,17.85
2016-12-24T00:44:47.459Z,17.9
2016-12-24T00:45:27.989Z,17.97
2016-12-24T00:46:08.524Z,17.94
2016-12-24T00:46:49.047Z,17.79
2016-12-24T00:47:29.569Z,17.85
2016-12-24T00:48:10.099Z,17.82
2016-12-24T00:48:50.639Z,17.87
2016-12-24T00:49:31.177Z,17.92
2016-12-24T00:50:11.705Z,17.87
2016-12-24T00:50:52.237Z,17.9
2016-12-24T00:51:32.761Z,17.89
2016-12-24T00:52:13.285Z,17.9
2016-12-24T00:52:53.803Z,17.92
2016-12-24T00:53:34.339Z,17.9
2016-12-24T00:54:14.863Z,17.87
2016-12-24T00:54:55.384Z,17.97
2016-12-24T00:55:35.963Z,17.86
2016-12-24T00:56:16.487Z,17.9
2016-12-24T00:56:57.014Z,17.94
2016-12-24T00:57:37.544Z,17.87
2016-12-24T00:58:18.072Z,17.9
2016-12-24T00:58:58.626Z,17.89
2016-12-24T00:59:39.134Z,17.95
2016-12-24T01:00:19.647Z,17.97
2016-12-24T01:01:00.172Z,17.87
2016-12-24T01:01:40.707Z,17.85
2016-12-24T01:02:21.244Z,17.86
2016-12-24T01:03:01.775Z,17.89
2016-12-24T01:03:42.305Z,17.86
2016-12-24T01:04:22.856Z,17.82
2016-12-24T01:05:03.390Z,17.82
2016-12-24T01:06:40.736Z,17.87
2016-12-24T01:07:21.261Z,17.82
2016-12-24T01:08:01.779Z,17.86
2016-12-24T01:08:42.315Z,17.85
2016-12-24T01:09:22.832Z,17.94
2016-12-24T01:10:03.346Z,17.9
2016-12-24T01:10:43.871Z,17.78
2016-12-24T01:11:24.409Z,17.83
2016-12-24T01:12:04.941Z,17.82
2016-12-24T01:12:45.458Z,17.82
2016-12-24T01:13:25.984Z,17.83
2016-12-24T01:14:06.520Z,17.8
2016-12-24T01:14:47.055Z,17.87
2016-12-24T01:15:27.583Z,17.86
2016-12-24T01:16:08.112Z,17.79
2016-12-24T01:16:48.641Z,17.87
2016-12-24T01:17:29.169Z,17.86
2016-12-24T01:18:09.670Z,17.85
2016-12-24T01:18:50.207Z,17.83
2016-12-24T01:19:30.723Z,17.85
2016-12-24T01:20:11.249Z,17.9
2016-12-24T01:20:51.778Z,17.97
2016-12-24T01:21:32.288Z,17.9
2016-12-24T01:22:12.815Z,17.86
2016-12-24T01:22:53.345Z,17.79
2016-12-24T01:23:33.866Z,17.79
2016-12-24T01:24:14.387Z,17.89
2016-12-24T01:24:54.909Z,17.92
2016-12-24T01:25:35.439Z,17.87
2016-12-24T01:26:15.977Z,17.86
2016-12-24T01:26:56.507Z,17.85
2016-12-24T01:27:37.018Z,17.82
2016-12-24T01:28:17.545Z,17.83
2016-12-24T01:28:58.075Z,17.89
2016-12-24T01:29:38.609Z,17.83
2016-12-24T01:30:19.140Z,17.82
2016-12-24T01:30:59.665Z,17.87
2016-12-24T01:31:40.196Z,17.89
2016-12-24T01:32:20.733Z,17.86
2016-12-24T01:33:01.258Z,17.85
2016-12-24T01:33:41.779Z,17.89
2016-12-24T01:34:22.301Z,17.83
2016-12-24T01:35:02.821Z,17.82
2016-12-24T01:35:43.355Z,17.83
2016-12-24T01:36:23.882Z,17.79
2016-12-24T01:37:04.406Z,17.78
2016-12-24T01:37:44.913Z,17.74
2016-12-24T01:38:25.434Z,17.85
2016-12-24T01:39:05.972Z,17.86
2016-12-24T01:39:46.497Z,17.85
2016-12-24T01:40:27.011Z,17.79
2016-12-24T01:41:07.544Z,17.8
2016-12-24T01:41:48.081Z,17.8
2016-12-24T01:42:28.594Z,17.76
2016-12-24T01:43:09.120Z,17.83
2016-12-24T01:43:49.652Z,17.8
2016-12-24T01:44:30.179Z,17.8
2016-12-24T01:45:10.705Z,17.76
2016-12-24T01:45:51.231Z,17.8
2016-12-24T01:46:31.769Z,17.79
2016-12-24T01:47:12.300Z,17.83
2016-12-24T01:47:52.829Z,17.8
2016-12-24T01:48:33.364Z,17.79
2016-12-24T01:49:13.880Z,17.8
2016-12-24T01:49:54.410Z,17.82
2016-12-24T01:50:34.933Z,17.78
2016-12-24T01:51:15.467Z,17.82
2016-12-24T01:51:56.004Z,17.76
2016-12-24T01:52:36.542Z,17.79
2016-12-24T01:53:17.069Z,17.86
2016-12-24T01:53:57.602Z,17.78
2016-12-24T01:54:38.129Z,17.82
2016-12-24T01:55:18.671Z,17.74
2016-12-24T01:55:59.200Z,17.76
2016-12-24T01:56:39.729Z,17.76
2016-12-24T01:57:20.258Z,17.79
2016-12-24T01:58:00.788Z,17.78
2016-12-24T01:58:41.305Z,17.79
2016-12-24T01:59:21.843Z,17.78
2016-12-24T02:00:02.343Z,17.78
2016-12-24T02:00:42.866Z,17.76
2016-12-24T02:01:23.393Z,17.82
2016-12-24T02:02:03.941Z,17.76
2016-12-24T02:02:44.462Z,17.78
2016-12-24T02:03:24.999Z,17.76
2016-12-24T02:04:05.514Z,17.78
2016-12-24T02:04:46.048Z,17.8
2016-12-24T02:05:26.633Z,17.82
2016-12-24T02:06:07.144Z,17.78
2016-12-24T02:06:47.690Z,17.78
2016-12-24T02:07:28.199Z,17.76
2016-12-24T02:08:08.722Z,17.8
2016-12-24T02:08:49.257Z,17.8
2016-12-24T02:09:29.793Z,17.8
2016-12-24T02:10:10.325Z,17.8
2016-12-24T02:10:50.850Z,17.82
2016-12-24T02:11:31.390Z,17.8
2016-12-24T02:12:11.915Z,17.79
2016-12-24T02:12:52.446Z,17.83
2016-12-24T02:13:32.975Z,17.83
2016-12-24T02:14:13.524Z,17.85
2016-12-24T02:14:54.033Z,17.87
2016-12-24T02:15:34.580Z,17.85
2016-12-24T02:16:15.096Z,17.82
2016-12-24T02:16:55.611Z,17.78
2016-12-24T02:17:36.168Z,17.79
2016-12-24T02:18:16.696Z,17.83
2016-12-24T02:18:57.248Z,17.76
2016-12-24T02:19:37.777Z,17.85
2016-12-24T02:20:18.324Z,17.8
2016-12-24T02:20:58.851Z,17.82
2016-12-24T02:21:39.371Z,17.82
2016-12-24T02:22:19.894Z,17.79
2016-12-24T02:23:00.420Z,17.78
2016-12-24T02:23:40.932Z,17.79
2016-12-24T02:24:21.478Z,17.79
2016-12-24T02:25:02.020Z,17.79
2016-12-24T02:25:42.534Z,17.74
2016-12-24T02:26:23.047Z,17.74
2016-12-24T02:27:03.572Z,17.8
2016-12-24T02:27:44.092Z,17.76
2016-12-24T02:28:24.606Z,17.76
2016-12-24T02:29:05.137Z,17.82
2016-12-24T02:29:45.660Z,17.83
2016-12-24T02:30:26.191Z,17.83
2016-12-24T02:31:06.722Z,17.86
2016-12-24T02:31:47.247Z,17.85
2016-12-24T02:32:34.531Z,17.82
2016-12-24T02:33:15.069Z,17.8
2016-12-24T02:33:55.586Z,17.78
2016-12-24T02:34:36.107Z,17.8
2016-12-24T02:35:16.644Z,17.79
2016-12-24T02:35:57.182Z,17.78
2016-12-24T02:36:37.722Z,17.8
2016-12-24T02:37:18.247Z,17.79
2016-12-24T02:37:58.779Z,17.79
2016-12-24T02:38:39.323Z,17.78
2016-12-24T02:39:19.873Z,17.74
2016-12-24T02:40:00.396Z,17.74
2016-12-24T02:40:40.935Z,17.78
2016-12-24T02:41:21.467Z,17.78
2016-12-24T02:42:02.001Z,17.8
2016-12-24T02:42:42.531Z,17.79
2016-12-24T02:43:23.068Z,17.72
2016-12-24T02:44:03.602Z,17.83
2016-12-24T02:44:44.137Z,17.8
2016-12-24T02:45:24.674Z,17.82
2016-12-24T02:46:05.196Z,17.82
2016-12-24T02:46:45.721Z,17.72
2016-12-24T02:47:26.251Z,17.78
2016-12-24T02:48:06.784Z,17.76
2016-12-24T02:48:47.311Z,17.76
2016-12-24T02:49:27.844Z,17.78
2016-12-24T02:50:08.382Z,17.79
2016-12-24T02:50:48.909Z,17.76
2016-12-24T02:51:29.447Z,17.87
2016-12-24T02:52:09.976Z,17.8
2016-12-24T02:52:50.512Z,17.8
2016-12-24T02:53:31.043Z,17.76
2016-12-24T02:54:11.569Z,17.76
2016-12-24T02:54:52.102Z,17.8
2016-12-24T02:55:32.633Z,17.79
2016-12-24T02:56:13.164Z,17.79
2016-12-24T02:56:53.697Z,17.87
2016-12-24T02:57:34.233Z,17.8
2016-12-24T02:58:14.746Z,17.78
2016-12-24T02:58:55.279Z,17.83
2016-12-24T02:59:35.813Z,17.76
2016-12-24T03:00:16.360Z,17.79
2016-12-24T03:00:56.869Z,17.79
2016-12-24T03:01:37.395Z,17.83
2016-12-24T03:02:17.923Z,17.85
2016-12-24T03:02:58.465Z,17.8
2016-12-24T03:03:38.997Z,17.76
2016-12-24T03:04:19.519Z,17.76
2016-12-24T03:05:00.061Z,17.76
2016-12-24T03:05:40.579Z,17.8
2016-12-24T03:06:21.104Z,17.79
2016-12-24T03:07:01.630Z,17.76
2016-12-24T03:07:42.163Z,17.76
2016-12-24T03:08:22.695Z,17.76
2016-12-24T03:09:03.227Z,17.76
2016-12-24T03:09:43.745Z,17.79
2016-12-24T03:10:24.266Z,17.83
2016-12-24T03:11:04.795Z,17.79
2016-12-24T03:11:45.329Z,17.85
2016-12-24T03:12:25.887Z,17.87
2016-12-24T03:13:06.421Z,17.8
2016-12-24T03:13:46.958Z,17.83
2016-12-24T03:14:27.491Z,17.78
2016-12-24T03:15:08.019Z,17.83
2016-12-24T03:15:48.543Z,17.86
2016-12-24T03:16:29.062Z,17.76
2016-12-24T03:17:09.590Z,17.86
2016-12-24T03:17:50.122Z,17.9
2016-12-24T03:18:30.655Z,17.89
2016-12-24T03:19:11.185Z,17.94
2016-12-24T03:19:51.713Z,17.85
2016-12-24T03:20:32.250Z,17.86
2016-12-24T03:21:12.776Z,17.87
2016-12-24T03:21:53.301Z,17.94
2016-12-24T03:22:33.827Z,17.87
2016-12-24T03:23:14.353Z,17.89
2016-12-24T03:23:54.882Z,17.87
2016-12-24T03:24:35.418Z,17.94
2016-12-24T03:25:15.954Z,17.92
2016-12-24T03:25:56.498Z,17.85
2016-12-24T03:26:37.028Z,17.9
2016-12-24T03:27:17.561Z,17.87
2016-12-24T03:27:58.098Z,17.82
2016-12-24T03:28:38.641Z,17.87
2016-12-24T03:29:19.168Z,17.82
2016-12-24T03:29:59.699Z,17.82
2016-12-24T03:30:40.227Z,17.87
2016-12-24T03:31:20.758Z,17.89
2016-12-24T03:32:01.323Z,17.83
2016-12-24T03:32:41.851Z,17.87
2016-12-24T03:33:22.388Z,17.83
2016-12-24T03:34:02.918Z,17.9
2016-12-24T03:34:43.448Z,17.92
2016-12-24T03:35:23.973Z,17.79
2016-12-24T03:36:04.502Z,17.87
2016-12-24T03:36:45.044Z,17.87
2016-12-24T03:37:25.566Z,17.82
2016-12-24T03:38:06.095Z,17.87
2016-12-24T03:38:46.645Z,17.89
2016-12-24T03:39:27.181Z,17.83
2016-12-24T03:40:07.712Z,17.85
2016-12-24T03:40:48.242Z,17.87
2016-12-24T03:41:28.772Z,17.85
2016-12-24T03:42:09.294Z,17.86
2016-12-24T03:42:49.849Z,17.86
2016-12-24T03:43:30.362Z,17.92
2016-12-24T03:44:10.913Z,17.87
2016-12-24T03:44:51.446Z,17.92
2016-12-24T03:45:31.975Z,17.85
2016-12-24T03:46:12.514Z,17.9
2016-12-24T03:46:53.046Z,17.97
2016-12-24T03:47:33.591Z,17.83
2016-12-24T03:48:14.120Z,17.9
2016-12-24T03:48:54.659Z,17.89
2016-12-24T03:49:35.191Z,17.9
2016-12-24T03:50:15.721Z,17.9
2016-12-24T03:50:56.252Z,17.89
2016-12-24T03:51:36.778Z,17.98
2016-12-24T03:52:17.302Z,17.9
2016-12-24T03:52:57.830Z,17.95
2016-12-24T03:53:38.356Z,18
2016-12-24T03:54:18.950Z,17.92
2016-12-24T03:54:59.488Z,17.85
2016-12-24T03:55:40.020Z,17.89
2016-12-24T03:56:20.549Z,17.94
2016-12-24T03:57:01.079Z,17.95
2016-12-24T03:57:41.607Z,17.89
2016-12-24T03:58:22.140Z,17.87
2016-12-24T03:59:02.664Z,17.89
2016-12-24T03:59:43.198Z,17.86
2016-12-24T04:00:23.729Z,17.9
2016-12-24T04:01:04.253Z,17.92
2016-12-24T04:01:44.782Z,17.86
2016-12-24T04:02:25.319Z,17.92
2016-12-24T04:03:05.854Z,17.9
2016-12-24T04:03:46.379Z,17.87
2016-12-24T04:04:26.909Z,17.85
2016-12-24T04:05:07.440Z,17.89
2016-12-24T04:05:47.962Z,18.03
2016-12-24T04:06:28.496Z,17.85
2016-12-24T04:07:09.027Z,17.89
2016-12-24T04:07:49.557Z,17.86
2016-12-24T04:08:30.085Z,17.94
2016-12-24T04:09:10.612Z,17.87
2016-12-24T04:09:51.148Z,17.89
2016-12-24T04:10:31.687Z,17.89
2016-12-24T04:11:12.214Z,17.92
2016-12-24T04:11:52.748Z,17.87
2016-12-24T04:12:33.285Z,17.85
2016-12-24T04:13:13.817Z,17.9
2016-12-24T04:13:54.345Z,17.9
2016-12-24T04:14:34.880Z,17.9
2016-12-24T04:15:15.414Z,17.94
2016-12-24T04:15:55.947Z,17.89
2016-12-24T04:16:36.487Z,17.9
2016-12-24T04:17:17.014Z,17.95
2016-12-24T04:17:57.538Z,17.9
2016-12-24T04:18:38.070Z,17.9
2016-12-24T04:19:18.608Z,17.9
2016-12-24T04:19:59.145Z,17.89
2016-12-24T04:20:39.669Z,18
2016-12-24T04:21:20.189Z,17.9
2016-12-24T04:22:00.711Z,17.95
2016-12-24T04:22:41.255Z,17.87
2016-12-24T04:23:21.792Z,17.86
2016-12-24T04:24:02.366Z,17.92
2016-12-24T04:24:42.896Z,17.86
2016-12-24T04:25:23.433Z,17.87
2016-12-24T04:26:03.968Z,17.87
2016-12-24T04:26:44.502Z,17.86
2016-12-24T04:27:25.041Z,17.95
2016-12-24T04:28:05.570Z,17.87
2016-12-24T04:28:46.110Z,17.89
2016-12-24T04:29:26.643Z,17.89
2016-12-24T04:30:07.177Z,17.97
2016-12-24T04:30:47.716Z,17.87
2016-12-24T04:31:28.251Z,17.85
2016-12-24T04:32:08.794Z,17.86
2016-12-24T04:32:49.322Z,17.89
2016-12-24T04:33:29.857Z,17.94
2016-12-24T04:34:10.385Z,17.89
2016-12-24T04:34:50.909Z,17.97
2016-12-24T04:35:31.447Z,17.95
2016-12-24T04:36:11.976Z,17.92
2016-12-24T04:36:52.502Z,17.97
2016-12-24T04:37:33.033Z,17.89
2016-12-24T04:38:13.560Z,17.87
2016-12-24T04:38:54.097Z,17.9
2016-12-24T04:39:34.636Z,17.94
2016-12-24T04:40:15.155Z,17.87
2016-12-24T04:40:55.694Z,17.94
2016-12-24T04:41:36.222Z,17.83
2016-12-24T04:42:16.753Z,17.95
2016-12-24T04:42:57.280Z,17.89
2016-12-24T04:43:37.814Z,17.9
2016-12-24T04:44:18.345Z,17.86
2016-12-24T04:44:58.872Z,17.98
2016-12-24T04:45:39.409Z,17.86
2016-12-24T04:46:19.931Z,17.97
2016-12-24T04:47:00.485Z,17.87
2016-12-24T04:47:41.021Z,17.94
2016-12-24T04:48:21.546Z,17.97
2016-12-24T04:49:02.086Z,17.98
2016-12-24T04:49:42.612Z,17.92
2016-12-24T04:50:23.151Z,17.9
2016-12-24T04:51:03.676Z,18.03
2016-12-24T04:51:44.210Z,18.07
2016-12-24T04:52:24.749Z,18.11
2016-12-24T04:53:05.285Z,18.05
2016-12-24T04:53:45.806Z,18.01
2016-12-24T04:54:26.345Z,17.95
2016-12-24T04:55:06.881Z,18
2016-12-24T04:55:47.411Z,18.03
2016-12-24T04:56:27.940Z,17.98
2016-12-24T04:57:08.467Z,18.04
2016-12-24T04:57:49.004Z,18.01
2016-12-24T04:58:29.512Z,17.98
2016-12-24T04:59:10.071Z,17.98
2016-12-24T04:59:50.608Z,18.01
2016-12-24T05:00:31.138Z,17.92
2016-12-24T05:01:11.675Z,17.9
2016-12-24T05:01:52.216Z,18.05
2016-12-24T05:02:32.751Z,17.98
2016-12-24T05:03:13.281Z,17.9
2016-12-24T05:03:53.808Z,18.01
2016-12-24T05:04:34.352Z,18.03
2016-12-24T05:05:14.893Z,18.05
2016-12-24T05:05:55.423Z,18.05
2016-12-24T05:06:35.955Z,17.98
2016-12-24T05:07:16.483Z,18.03
2016-12-24T05:07:57.015Z,18.04
2016-12-24T05:08:37.552Z,18.05
2016-12-24T05:09:18.083Z,18.07
2016-12-24T05:09:58.614Z,17.97
2016-12-24T05:10:39.143Z,18.03
2016-12-24T05:11:19.681Z,18.05
2016-12-24T05:12:00.209Z,18.01
2016-12-24T05:12:40.734Z,18.05
2016-12-24T05:13:21.266Z,18.05
2016-12-24T05:14:01.799Z,17.95
2016-12-24T05:14:42.342Z,17.87
2016-12-24T05:15:22.868Z,17.92
2016-12-24T05:16:03.409Z,18
2016-12-24T05:16:43.948Z,18.01
2016-12-24T05:17:24.480Z,18.01
2016-12-24T05:18:05.016Z,18.01
2016-12-24T05:18:45.532Z,18.03
2016-12-24T05:19:26.058Z,18.1
2016-12-24T05:20:06.598Z,17.97
2016-12-24T05:20:47.129Z,17.9
2016-12-24T05:21:27.651Z,18.05
2016-12-24T05:22:08.186Z,17.97
2016-12-24T05:22:48.712Z,18.04
2016-12-24T05:23:29.251Z,18.04
2016-12-24T05:24:09.789Z,18
2016-12-24T05:24:50.319Z,18
2016-12-24T05:25:30.848Z,18.07
2016-12-24T05:26:11.384Z,18.07
2016-12-24T05:26:51.920Z,18.03
2016-12-24T05:27:32.452Z,18.01
2016-12-24T05:28:12.989Z,18.07
2016-12-24T05:28:53.550Z,18.05
2016-12-24T05:29:34.079Z,17.94
2016-12-24T05:30:14.610Z,18.03
2016-12-24T05:30:55.136Z,18.01
2016-12-24T05:31:35.660Z,18.04
2016-12-24T05:32:16.192Z,18.05
2016-12-24T05:32:56.728Z,17.97
2016-12-24T05:33:37.269Z,18.05
2016-12-24T05:34:17.801Z,18.01
2016-12-24T05:34:58.330Z,18.07
2016-12-24T05:35:38.859Z,17.98
2016-12-24T05:36:19.379Z,18.03
2016-12-24T05:36:59.918Z,17.98
2016-12-24T05:37:40.457Z,18.05
2016-12-24T05:38:20.996Z,18.01
2016-12-24T05:39:01.512Z,18.01
2016-12-24T05:39:42.043Z,18.1
2016-12-24T05:40:22.576Z,18.05
2016-12-24T05:41:03.112Z,18
2016-12-24T05:41:43.643Z,18
2016-12-24T05:42:24.180Z,18.05
2016-12-24T05:43:04.715Z,18.05
2016-12-24T05:43:45.245Z,18.03
2016-12-24T05:44:25.775Z,18.03
2016-12-24T05:45:06.302Z,18.07
2016-12-24T05:45:46.838Z,18.05
2016-12-24T05:46:27.370Z,18.01
2016-12-24T05:47:07.898Z,18.08
2016-12-24T05:47:48.427Z,18.03
2016-12-24T05:48:28.963Z,18.03
2016-12-24T05:49:09.501Z,18.04
2016-12-24T05:49:50.032Z,18.05
2016-12-24T05:50:30.560Z,18.01
2016-12-24T05:51:11.099Z,18.03
2016-12-24T05:51:51.638Z,17.95
2016-12-24T05:52:32.170Z,18.04
2016-12-24T05:53:12.707Z,18.03
2016-12-24T05:53:53.232Z,18.03
2016-12-24T05:54:33.766Z,18.04
2016-12-24T05:55:14.304Z,18.05
2016-12-24T05:55:54.838Z,18.01
2016-12-24T05:56:35.376Z,18.11
2016-12-24T05:57:15.910Z,18.05
2016-12-24T05:57:56.432Z,18.07
2016-12-24T05:58:36.968Z,18.03
2016-12-24T05:59:17.504Z,18.08
2016-12-24T05:59:58.041Z,18.03
2016-12-24T06:00:38.577Z,18.03
2016-12-24T06:01:19.114Z,18.05
2016-12-24T06:01:59.635Z,18.05
2016-12-24T06:02:40.175Z,18.04
2016-12-24T06:03:20.704Z,18.04
2016-12-24T06:04:01.240Z,18.05
2016-12-24T06:04:41.779Z,18.01
2016-12-24T06:05:22.304Z,18.05
2016-12-24T06:06:02.845Z,18.05
2016-12-24T06:06:43.378Z,18.03
2016-12-24T06:07:23.900Z,18.01
2016-12-24T06:08:04.420Z,17.97
2016-12-24T06:08:44.953Z,18
2016-12-24T06:09:25.494Z,18
2016-12-24T06:10:06.031Z,18.03
2016-12-24T06:10:46.565Z,17.98
2016-12-24T06:11:27.095Z,18.04
2016-12-24T06:12:07.630Z,18.04
2016-12-24T06:12:48.176Z,18
2016-12-24T06:13:28.713Z,18
2016-12-24T06:14:09.247Z,18.04
2016-12-24T06:14:49.788Z,18.07
2016-12-24T06:15:30.315Z,18.05
2016-12-24T06:16:10.846Z,17.98
2016-12-24T06:16:51.395Z,18.05
2016-12-24T06:17:31.921Z,18.07
2016-12-24T06:18:12.460Z,18.05
2016-12-24T06:18:53.002Z,18.07
2016-12-24T06:19:33.533Z,18.01
2016-12-24T06:20:14.081Z,18.01
2016-12-24T06:20:54.609Z,18
2016-12-24T06:21:35.142Z,18.04
2016-12-24T06:22:15.680Z,17.98
2016-12-24T06:22:56.232Z,18.05
2016-12-24T06:23:36.756Z,18.04
2016-12-24T06:24:17.284Z,18.01
2016-12-24T06:24:57.833Z,18.05
2016-12-24T06:25:38.364Z,18.03
2016-12-24T06:26:18.898Z,18.01
2016-12-24T06:26:59.434Z,18.03
2016-12-24T06:27:39.955Z,18.01
2016-12-24T06:28:20.484Z,18.1
2016-12-24T06:29:01.008Z,18.04
2016-12-24T06:29:41.541Z,18.04
2016-12-24T06:30:22.076Z,18.07
2016-12-24T06:31:02.618Z,18
2016-12-24T06:31:43.168Z,18.01
2016-12-24T06:32:23.701Z,18.04
2016-12-24T06:33:04.234Z,18.03
2016-12-24T06:33:44.790Z,18
2016-12-24T06:34:25.289Z,18.07
2016-12-24T06:35:05.827Z,18.04
2016-12-24T06:35:46.367Z,18.03
2016-12-24T06:36:26.913Z,18.04
2016-12-24T06:37:07.587Z,18.05
2016-12-24T06:37:48.130Z,18.05
2016-12-24T06:38:28.665Z,18.07
2016-12-24T06:39:09.255Z,18.05
2016-12-24T06:39:49.776Z,18.07
2016-12-24T06:40:30.306Z,18.04
2016-12-24T06:41:10.838Z,18.05
2016-12-24T06:41:51.368Z,18.05
2016-12-24T06:42:31.899Z,18.05
2016-12-24T06:43:12.425Z,18.04
2016-12-24T06:43:53.067Z,18.04
2016-12-24T06:44:33.598Z,18.01
2016-12-24T06:45:14.124Z,18.13
2016-12-24T06:45:54.703Z,18.19
2016-12-24T06:46:35.242Z,18.16
2016-12-24T06:47:15.770Z,18.04
2016-12-24T06:47:56.297Z,18.07
2016-12-24T06:48:36.827Z,18.05
2016-12-24T06:49:17.382Z,18
2016-12-24T06:49:57.908Z,18.01
2016-12-24T06:50:38.454Z,18.05
2016-12-24T06:51:18.993Z,18.08
2016-12-24T06:51:59.519Z,18.08
2016-12-24T06:52:40.068Z,18.01
2016-12-24T06:53:20.639Z,18.07
2016-12-24T06:54:01.173Z,18.04
2016-12-24T06:54:41.715Z,18.04
2016-12-24T06:55:22.242Z,18
2016-12-24T06:56:02.767Z,18.03
2016-12-24T06:56:43.300Z,18.05
2016-12-24T06:57:23.843Z,18.04
2016-12-24T06:58:04.365Z,18.04
2016-12-24T06:58:44.896Z,18.13
2016-12-24T06:59:25.432Z,18.15
2016-12-24T07:00:05.967Z,18.08
2016-12-24T07:00:46.489Z,18.03
2016-12-24T07:01:27.020Z,18.08
2016-12-24T07:02:07.560Z,18.04
2016-12-24T07:02:48.074Z,18.01
2016-12-24T07:03:28.619Z,18.03
2016-12-24T07:04:09.148Z,18
2016-12-24T07:04:49.682Z,18.07
2016-12-24T07:05:30.221Z,18.05
2016-12-24T07:06:10.797Z,18.04
2016-12-24T07:06:51.329Z,18.04
2016-12-24T07:07:31.862Z,18
2016-12-24T07:08:12.391Z,18.07
2016-12-24T07:08:52.927Z,18.04
2016-12-24T07:09:33.467Z,18.05
2016-12-24T07:10:14.001Z,18.05
2016-12-24T07:10:54.529Z,18
2016-12-24T07:11:35.070Z,18.04
2016-12-24T07:12:15.609Z,18.13
2016-12-24T07:12:56.147Z,18.01
2016-12-24T07:13:36.683Z,18.05
2016-12-24T07:14:17.222Z,18.04
2016-12-24T07:14:57.745Z,18
2016-12-24T07:15:38.286Z,18.03
2016-12-24T07:16:18.822Z,18.01
2016-12-24T07:16:59.344Z,18.08
2016-12-24T07:17:39.998Z,18.07
2016-12-24T07:18:20.542Z,18.01
2016-12-24T07:19:01.071Z,18.04
2016-12-24T07:19:41.599Z,18.05
2016-12-24T07:20:22.135Z,18.13
2016-12-24T07:21:02.671Z,18.08
2016-12-24T07:21:43.202Z,18.11
2016-12-24T07:22:23.733Z,18.03
2016-12-24T07:23:04.271Z,18.1
2016-12-24T07:23:44.805Z,18.16
2016-12-24T07:24:25.336Z,18.13
2016-12-24T07:25:05.873Z,18.04
2016-12-24T07:25:46.397Z,18.13
2016-12-24T07:26:26.926Z,18.03
2016-12-24T07:27:07.472Z,18.04
2016-12-24T07:27:47.996Z,18.04
2016-12-24T07:28:28.517Z,18.07
2016-12-24T07:29:09.048Z,18.03
2016-12-24T07:29:49.587Z,18.03
2016-12-24T07:30:30.122Z,18.1
2016-12-24T07:31:10.662Z,18.05
2016-12-24T07:31:51.203Z,18.07
2016-12-24T07:32:31.729Z,18.16
2016-12-24T07:33:12.259Z,18.2
2016-12-24T07:33:52.785Z,18.11
2016-12-24T07:34:33.322Z,18.01
2016-12-24T07:35:13.855Z,18.03
2016-12-24T07:35:54.385Z,18.11
2016-12-24T07:36:34.918Z,18.01
2016-12-24T07:37:15.447Z,18.1
2016-12-24T07:37:55.985Z,18.13
2016-12-24T07:38:36.508Z,18.04
2016-12-24T07:39:17.038Z,18.08
2016-12-24T07:39:57.564Z,18.16
2016-12-24T07:40:38.097Z,18.04
2016-12-24T07:41:18.625Z,18.04
2016-12-24T07:41:59.171Z,18.16
2016-12-24T07:42:39.721Z,18.1
2016-12-24T07:43:20.246Z,18.16
2016-12-24T07:44:00.787Z,18.18
2016-12-24T07:44:41.316Z,18.23
2016-12-24T07:45:21.848Z,18.13
2016-12-24T07:46:02.383Z,18.2
2016-12-24T07:46:42.913Z,18.25
2016-12-24T07:47:23.448Z,18.19
2016-12-24T07:48:03.991Z,18.28
2016-12-24T07:48:44.528Z,18.13
2016-12-24T07:49:25.055Z,18.15
2016-12-24T07:50:05.588Z,18.34
2016-12-24T07:50:46.107Z,18.4
2016-12-24T07:51:26.640Z,18.4
2016-12-24T07:52:07.182Z,18.52
2016-12-24T07:52:47.709Z,18.41
2016-12-24T07:53:28.233Z,18.44
2016-12-24T07:54:08.756Z,18.49
2016-12-24T07:54:49.276Z,18.5
2016-12-24T07:55:29.814Z,18.52
2016-12-24T07:56:10.335Z,18.6
2016-12-24T07:56:50.871Z,18.49
2016-12-24T07:57:31.397Z,18.45
2016-12-24T07:58:11.925Z,18.6
2016-12-24T07:58:52.456Z,18.71
2016-12-24T07:59:32.974Z,18.95
2016-12-24T08:00:13.516Z,18.86
2016-12-24T08:00:54.045Z,18.77
2016-12-24T08:01:34.567Z,18.71
2016-12-24T08:02:15.101Z,18.73
2016-12-24T08:02:55.632Z,18.68
2016-12-24T08:03:36.168Z,18.71
2016-12-24T08:04:16.703Z,18.75
2016-12-24T08:04:57.239Z,18.68
2016-12-24T08:05:37.762Z,18.68
2016-12-24T08:06:18.298Z,18.71
2016-12-24T08:06:58.835Z,18.71
2016-12-24T08:07:39.371Z,18.73
2016-12-24T08:08:19.899Z,18.71
2016-12-24T08:09:00.427Z,18.71
2016-12-24T08:09:40.947Z,18.68
2016-12-24T08:10:21.485Z,18.66
2016-12-24T08:11:02.013Z,18.78
2016-12-24T08:11:42.532Z,18.74
2016-12-24T08:12:23.057Z,18.71
2016-12-24T08:13:03.583Z,18.63
2016-12-24T08:13:44.124Z,18.66
2016-12-24T08:14:24.652Z,18.7
2016-12-24T08:15:05.195Z,18.8
2016-12-24T08:15:45.733Z,18.83
2016-12-24T08:16:26.273Z,18.77
2016-12-24T08:17:06.812Z,18.75
2016-12-24T08:17:47.330Z,18.75
2016-12-24T08:18:27.905Z,18.74
2016-12-24T08:19:08.429Z,18.68
2016-12-24T08:19:48.971Z,18.78
2016-12-24T08:20:29.500Z,18.75
2016-12-24T08:21:10.032Z,18.66
2016-12-24T08:21:50.574Z,18.68
2016-12-24T08:22:31.109Z,18.73
2016-12-24T08:23:11.635Z,18.77
2016-12-24T08:23:52.172Z,18.75
2016-12-24T08:24:32.701Z,18.81
2016-12-24T08:25:13.222Z,18.66
2016-12-24T08:25:53.763Z,18.7
2016-12-24T08:26:34.289Z,18.74
2016-12-24T08:27:14.822Z,18.73
2016-12-24T08:27:55.350Z,18.74
2016-12-24T08:28:35.894Z,18.77
2016-12-24T08:29:16.426Z,18.83
2016-12-24T08:29:56.948Z,18.78
2016-12-24T08:30:37.485Z,18.71
2016-12-24T08:31:18.020Z,18.7
2016-12-24T08:31:58.556Z,18.68
2016-12-24T08:32:39.086Z,18.77
2016-12-24T08:33:19.623Z,18.8
2016-12-24T08:34:00.164Z,18.7
2016-12-24T08:34:40.697Z,18.75
2016-12-24T08:35:21.240Z,18.68
2016-12-24T08:36:01.773Z,18.78
2016-12-24T08:36:42.307Z,18.78
2016-12-24T08:37:22.856Z,18.78
2016-12-24T08:38:03.400Z,18.7
2016-12-24T08:38:43.933Z,18.78
2016-12-24T08:39:24.464Z,18.77
2016-12-24T08:40:04.999Z,18.68
2016-12-24T08:40:45.527Z,18.66
2016-12-24T08:41:26.064Z,18.77
2016-12-24T08:42:06.586Z,18.7
2016-12-24T08:42:47.116Z,18.84
2016-12-24T08:43:27.650Z,18.78
2016-12-24T08:44:08.183Z,18.8
2016-12-24T08:44:48.706Z,18.8
2016-12-24T08:45:29.246Z,18.83
2016-12-24T08:46:09.777Z,18.86